createdAt,value
2023-03-29T00:00:09.038Z,10.25
2023-03-29T00:02:39.116Z,10.28
2023-03-29T00:05:06.788Z,10.30
2023-03-29T00:07:33.923Z,10.35
2023-03-29T00:10:04.500Z,10.38
2023-03-29T00:12:32.023Z,10.40
2023-03-29T00:14:59.036Z,10.41
2023-03-29T00:17:27.235Z,10.41
2023-03-29T00:19:54.316Z,10.41
2023-03-29T00:22:22.035Z,10.41
2023-03-29T00:24:49.309Z,10.40
2023-03-29T00:27:16.923Z,10.35
2023-03-29T00:29:43.955Z,10.31
2023-03-29T00:32:11.037Z,10.26
2023-03-29T00:34:38.369Z,10.24
2023-03-29T00:37:08.793Z,10.22
2023-03-29T00:39:37.086Z,10.19
2023-03-29T00:42:04.244Z,10.18
2023-03-29T00:44:57.537Z,10.17
2023-03-29T00:47:39.696Z,10.16
2023-03-29T00:50:26.395Z,10.15
2023-03-29T00:53:05.178Z,10.12
2023-03-29T00:55:57.684Z,10.12
2023-03-29T00:58:30.730Z,10.05
2023-03-29T01:01:08.893Z,10.02
2023-03-29T01:03:46.768Z,9.98
2023-03-29T01:06:18.134Z,9.96
2023-03-29T01:08:54.599Z,9.89
2023-03-29T01:11:30.671Z,9.86
2023-03-29T01:14:07.103Z,9.82
2023-03-29T01:16:38.471Z,9.84
2023-03-29T01:19:09.572Z,9.82
2023-03-29T01:21:44.556Z,9.81
2023-03-29T01:24:45.479Z,9.76
2023-03-29T01:27:55.503Z,9.76
2023-03-29T01:30:46.728Z,9.71
2023-03-29T01:33:25.433Z,9.64
2023-03-29T01:36:12.205Z,9.60
2023-03-29T01:38:48.891Z,9.60
2023-03-29T01:41:16.600Z,9.59
2023-03-29T01:44:12.655Z,9.60
2023-03-29T01:46:52.639Z,9.58
2023-03-29T01:49:29.410Z,9.57
2023-03-29T01:52:06.997Z,9.53
2023-03-29T01:55:25.032Z,9.49
2023-03-29T01:57:55.702Z,9.46
2023-03-29T02:00:27.786Z,9.42
2023-03-29T02:03:04.558Z,9.42
2023-03-29T02:05:32.597Z,9.42
2023-03-29T02:08:01.558Z,9.41
2023-03-29T02:10:29.399Z,9.40
2023-03-29T02:12:56.677Z,9.42
2023-03-29T02:15:23.704Z,9.39
2023-03-29T02:17:51.508Z,9.35
2023-03-29T02:20:25.919Z,9.32
2023-03-29T02:23:10.026Z,9.27
2023-03-29T02:25:38.004Z,9.25
2023-03-29T02:28:06.911Z,9.23
2023-03-29T02:30:46.464Z,9.22
2023-03-29T02:33:27.765Z,9.17
2023-03-29T02:36:01.991Z,9.16
2023-03-29T02:38:31.382Z,9.11
2023-03-29T02:41:00.563Z,9.07
2023-03-29T02:43:29.730Z,9.02
2023-03-29T02:45:57.076Z,8.98
2023-03-29T02:48:27.414Z,8.95
2023-03-29T02:50:58.811Z,8.92
2023-03-29T02:53:34.068Z,8.91
2023-03-29T02:56:02.331Z,8.87
2023-03-29T02:58:29.728Z,8.84
2023-03-29T03:01:00.912Z,8.79
2023-03-29T03:03:29.305Z,8.73
2023-03-29T03:05:58.629Z,8.70
2023-03-29T03:08:26.249Z,8.70
2023-03-29T03:10:54.217Z,8.70
2023-03-29T03:13:21.376Z,8.70
2023-03-29T03:15:49.360Z,8.65
2023-03-29T03:18:16.810Z,8.62
2023-03-29T03:20:46.657Z,8.58
2023-03-29T03:23:13.928Z,8.55
2023-03-29T03:25:40.911Z,8.53
2023-03-29T03:28:08.040Z,8.47
2023-03-29T03:30:35.096Z,8.45
2023-03-29T03:33:02.159Z,8.42
2023-03-29T03:36:10.360Z,8.45
2023-03-29T03:38:38.997Z,8.45
2023-03-29T03:41:07.301Z,8.47
2023-03-29T03:43:35.732Z,8.45
2023-03-29T03:46:02.995Z,8.45
2023-03-29T03:48:30.693Z,8.41
2023-03-29T03:51:16.232Z,8.38
2023-03-29T03:53:43.870Z,8.33
2023-03-29T03:56:14.145Z,8.32
2023-03-29T03:58:59.806Z,8.32
2023-03-29T04:01:28.414Z,8.29
2023-03-29T04:04:12.631Z,8.26
2023-03-29T04:06:44.196Z,8.22
2023-03-29T04:09:35.662Z,8.17
2023-03-29T04:12:27.884Z,8.16
2023-03-29T04:14:55.537Z,8.16
2023-03-29T04:17:24.209Z,8.15
2023-03-29T04:19:51.299Z,8.16
2023-03-29T04:22:18.572Z,8.17
2023-03-29T04:24:45.869Z,8.14
2023-03-29T04:27:39.491Z,8.12
2023-03-29T04:30:15.370Z,8.05
2023-03-29T04:33:02.403Z,8.01
2023-03-29T04:35:30.456Z,7.94
2023-03-29T04:37:57.649Z,7.91
2023-03-29T04:40:25.053Z,7.87
2023-03-29T04:43:02.767Z,7.86
2023-03-29T04:45:30.591Z,7.86
2023-03-29T04:48:12.297Z,7.85
2023-03-29T04:50:47.089Z,7.77
2023-03-29T04:53:15.612Z,7.70
2023-03-29T04:55:47.353Z,7.63
2023-03-29T04:58:22.558Z,7.60
2023-03-29T05:00:51.658Z,7.62
2023-03-29T05:03:27.116Z,7.63
2023-03-29T05:06:09.087Z,7.62
2023-03-29T05:08:40.373Z,7.62
2023-03-29T05:11:21.906Z,7.63
2023-03-29T05:13:49.065Z,7.63
2023-03-29T05:16:16.164Z,7.62
2023-03-29T05:18:44.024Z,7.64
2023-03-29T05:21:12.302Z,7.64
2023-03-29T05:23:43.393Z,7.63
2023-03-29T05:26:30.679Z,7.58
2023-03-29T05:28:58.173Z,7.54
2023-03-29T05:31:26.602Z,7.53
2023-03-29T05:33:55.475Z,7.55
2023-03-29T05:36:23.443Z,7.56
2023-03-29T05:38:51.473Z,7.54
2023-03-29T05:41:21.124Z,7.52
2023-03-29T05:43:48.653Z,7.55
2023-03-29T05:46:16.514Z,7.57
2023-03-29T05:48:50.770Z,7.60
2023-03-29T05:51:24.466Z,7.62
2023-03-29T05:53:55.223Z,7.65
2023-03-29T05:56:22.909Z,7.69
2023-03-29T05:58:51.369Z,7.69
2023-03-29T06:01:19.403Z,7.71
2023-03-29T06:04:03.589Z,7.78
2023-03-29T06:06:39.389Z,7.82
2023-03-29T06:09:06.964Z,7.87
2023-03-29T06:11:40.923Z,7.92
2023-03-29T06:14:32.719Z,7.97
2023-03-29T06:17:16.345Z,8.02
2023-03-29T06:19:44.506Z,8.07
2023-03-29T06:22:14.750Z,8.13
2023-03-29T06:24:42.194Z,8.18
2023-03-29T06:27:17.741Z,8.24
2023-03-29T06:29:45.652Z,8.30
2023-03-29T06:32:12.755Z,8.34
2023-03-29T06:34:47.318Z,8.41
2023-03-29T06:37:42.789Z,8.45
2023-03-29T06:40:24.981Z,8.52
2023-03-29T06:42:58.016Z,8.58
2023-03-29T06:45:30.943Z,8.65
2023-03-29T06:48:00.537Z,8.71
2023-03-29T06:50:28.073Z,8.76
2023-03-29T06:53:10.860Z,8.83
2023-03-29T06:55:40.116Z,8.89
2023-03-29T06:58:26.239Z,8.96
2023-03-29T07:01:02.760Z,9.02
2023-03-29T07:03:46.690Z,9.07
2023-03-29T07:06:16.620Z,9.15
2023-03-29T07:08:44.966Z,9.22
2023-03-29T07:11:21.323Z,9.30
2023-03-29T07:13:55.548Z,9.38
2023-03-29T07:16:23.709Z,9.47
2023-03-29T07:18:51.257Z,9.55
2023-03-29T07:21:41.452Z,9.64
2023-03-29T07:24:10.289Z,9.74
2023-03-29T07:26:38.198Z,9.81
2023-03-29T07:29:06.438Z,9.91
2023-03-29T07:31:35.914Z,9.95
2023-03-29T07:34:22.916Z,10.03
2023-03-29T07:36:50.091Z,10.09
2023-03-29T07:39:17.681Z,10.16
2023-03-29T07:41:59.993Z,10.20
2023-03-29T07:44:29.688Z,10.25
2023-03-29T07:47:00.129Z,10.30
2023-03-29T07:49:27.846Z,10.41
2023-03-29T07:51:55.104Z,10.43
2023-03-29T07:54:23.544Z,10.55
2023-03-29T07:57:01.415Z,10.59
2023-03-29T07:59:32.958Z,10.66
2023-03-29T08:02:22.746Z,10.72
2023-03-29T08:04:54.518Z,10.80
2023-03-29T08:07:30.942Z,10.90
2023-03-29T08:10:30.452Z,11.00
2023-03-29T08:13:19.743Z,11.13
2023-03-29T08:16:15.890Z,11.20
2023-03-29T08:18:50.662Z,11.30
2023-03-29T08:21:19.100Z,11.36
2023-03-29T08:23:49.196Z,11.38
2023-03-29T08:26:29.904Z,11.50
2023-03-29T08:28:59.411Z,11.60
2023-03-29T08:31:28.293Z,11.64
2023-03-29T08:33:55.663Z,11.68
2023-03-29T08:36:50.810Z,11.70
2023-03-29T08:39:27.101Z,11.77
2023-03-29T08:42:34.664Z,11.80
2023-03-29T08:45:54.513Z,11.87
2023-03-29T08:48:33.957Z,11.90
2023-03-29T08:51:19.806Z,11.97
2023-03-29T08:53:53.111Z,12.15
2023-03-29T08:56:51.461Z,12.18
2023-03-29T08:59:29.374Z,12.16
2023-03-29T09:01:59.761Z,12.24
2023-03-29T09:04:32.044Z,12.34
2023-03-29T09:07:26.610Z,12.45
2023-03-29T09:09:55.995Z,12.53
2023-03-29T09:12:56.031Z,12.58
2023-03-29T09:15:31.202Z,12.69
2023-03-29T09:18:30.537Z,12.77
2023-03-29T09:21:30.350Z,12.89
2023-03-29T09:24:07.720Z,12.94
2023-03-29T09:26:49.494Z,13.08
2023-03-29T09:30:06.214Z,13.08
2023-03-29T09:33:08.329Z,13.07
2023-03-29T09:36:22.607Z,13.19
2023-03-29T09:38:54.439Z,13.16
2023-03-29T09:41:41.281Z,13.26
2023-03-29T09:44:30.272Z,13.36
2023-03-29T09:47:28.127Z,13.50
2023-03-29T09:50:23.433Z,13.57
2023-03-29T09:52:57.096Z,13.63
2023-03-29T09:55:30.384Z,13.80
2023-03-29T09:58:23.345Z,13.92
2023-03-29T10:00:53.816Z,13.99
2023-03-29T10:03:33.693Z,13.88
2023-03-29T10:06:14.617Z,13.98
2023-03-29T10:08:52.779Z,14.04
2023-03-29T10:11:28.959Z,14.17
2023-03-29T10:14:04.062Z,14.26
2023-03-29T10:16:41.947Z,14.20
2023-03-29T10:19:36.824Z,14.30
2023-03-29T10:22:16.459Z,14.40
2023-03-29T10:24:50.102Z,14.39
2023-03-29T10:27:26.207Z,14.45
2023-03-29T10:29:55.853Z,14.56
2023-03-29T10:32:23.078Z,14.67
2023-03-29T10:34:52.101Z,14.69
2023-03-29T10:37:21.306Z,14.81
2023-03-29T10:39:49.376Z,14.88
2023-03-29T10:42:19.945Z,14.96
2023-03-29T10:44:56.623Z,15.00
2023-03-29T10:47:27.739Z,14.95
2023-03-29T10:49:59.055Z,15.05
2023-03-29T10:52:27.179Z,15.14
2023-03-29T10:54:56.828Z,15.26
2023-03-29T10:57:38.693Z,15.35
2023-03-29T11:00:37.784Z,15.48
2023-03-29T11:04:04.770Z,15.54
2023-03-29T11:07:07.276Z,15.76
2023-03-29T11:09:57.493Z,15.86
2023-03-29T11:12:48.739Z,15.84
2023-03-29T11:15:42.276Z,15.88
2023-03-29T11:18:46.296Z,15.88
2023-03-29T11:21:30.360Z,16.05
2023-03-29T11:24:18.452Z,16.06
2023-03-29T11:27:37.190Z,16.17
2023-03-29T11:30:20.554Z,16.26
2023-03-29T11:33:07.306Z,16.25
2023-03-29T11:35:40.241Z,16.24
2023-03-29T11:38:19.302Z,16.32
2023-03-29T11:41:14.766Z,16.44
2023-03-29T11:43:51.450Z,16.53
2023-03-29T11:46:38.004Z,16.73
2023-03-29T11:49:17.079Z,16.89
2023-03-29T11:52:06.394Z,17.05
2023-03-29T11:54:44.894Z,17.17
2023-03-29T11:57:27.487Z,17.28
2023-03-29T12:00:06.144Z,17.26
2023-03-29T12:02:52.074Z,17.27
2023-03-29T12:05:24.283Z,17.28
2023-03-29T12:08:17.831Z,17.39
2023-03-29T12:11:03.967Z,17.46
2023-03-29T12:13:38.017Z,17.53
2023-03-29T12:16:52.735Z,17.62
2023-03-29T12:19:28.667Z,17.80
2023-03-29T12:21:58.357Z,17.87
2023-03-29T12:24:30.663Z,17.94
2023-03-29T12:27:26.025Z,18.05
2023-03-29T12:30:21.626Z,18.16
2023-03-29T12:32:51.766Z,18.17
2023-03-29T12:36:20.735Z,18.24
2023-03-29T12:39:19.824Z,18.28
2023-03-29T12:42:17.869Z,18.37
2023-03-29T12:45:04.084Z,18.36
2023-03-29T12:47:43.259Z,18.48
2023-03-29T12:50:37.595Z,18.33
2023-03-29T12:53:23.274Z,18.41
2023-03-29T12:55:56.114Z,18.53
2023-03-29T12:58:49.041Z,18.61
2023-03-29T13:01:30.079Z,18.71
2023-03-29T13:04:01.617Z,18.85
2023-03-29T13:07:02.845Z,18.65
2023-03-29T13:09:37.852Z,18.59
2023-03-29T13:12:31.431Z,18.59
2023-03-29T13:15:04.588Z,18.61
2023-03-29T13:18:29.145Z,18.73
2023-03-29T13:21:09.567Z,18.50
2023-03-29T13:24:16.634Z,18.72
2023-03-29T13:27:48.115Z,18.85
2023-03-29T13:30:49.275Z,18.98
2023-03-29T13:33:41.449Z,19.09
2023-03-29T13:36:32.928Z,19.17
2023-03-29T13:39:05.515Z,19.24
2023-03-29T13:41:38.565Z,19.39
2023-03-29T13:44:29.702Z,19.51
2023-03-29T13:47:19.080Z,19.45
2023-03-29T13:49:58.165Z,19.50
2023-03-29T13:52:39.254Z,19.44
2023-03-29T13:55:21.090Z,19.45
2023-03-29T13:58:32.156Z,19.44
2023-03-29T14:01:26.155Z,19.55
2023-03-29T14:03:53.588Z,19.67
2023-03-29T14:06:32.703Z,19.78
2023-03-29T14:09:06.396Z,19.70
2023-03-29T14:11:34.235Z,19.74
2023-03-29T14:14:05.309Z,19.77
2023-03-29T14:16:38.624Z,19.86
2023-03-29T14:19:14.771Z,19.86
2023-03-29T14:21:43.361Z,19.97
2023-03-29T14:24:21.998Z,19.90
2023-03-29T14:26:49.337Z,19.96
2023-03-29T14:29:18.344Z,19.95
2023-03-29T14:31:45.877Z,19.88
2023-03-29T14:34:18.512Z,20.02
2023-03-29T14:36:54.077Z,20.09
2023-03-29T14:39:23.427Z,20.17
2023-03-29T14:41:54.339Z,20.25
2023-03-29T14:44:26.136Z,20.29
2023-03-29T14:46:55.748Z,20.30
2023-03-29T14:49:23.836Z,20.35
2023-03-29T14:51:52.368Z,20.38
2023-03-29T14:54:29.361Z,20.37
2023-03-29T14:56:56.890Z,20.34
2023-03-29T14:59:37.055Z,20.28
2023-03-29T15:02:07.370Z,20.14
2023-03-29T15:04:39.535Z,20.04
2023-03-29T15:07:08.390Z,20.06
2023-03-29T15:09:36.062Z,19.94
2023-03-29T15:12:03.706Z,19.85
2023-03-29T15:14:37.019Z,19.85
2023-03-29T15:17:17.035Z,19.94
2023-03-29T15:19:44.561Z,19.99
2023-03-29T15:22:11.871Z,20.04
2023-03-29T15:24:47.464Z,20.04
2023-03-29T15:27:19.836Z,20.02
2023-03-29T15:29:47.944Z,20.01
2023-03-29T15:32:37.217Z,20.01
2023-03-29T15:35:09.357Z,20.01
2023-03-29T15:37:36.861Z,20.02
2023-03-29T15:40:09.678Z,20.06
2023-03-29T15:42:37.432Z,20.04
2023-03-29T15:45:06.551Z,20.06
2023-03-29T15:47:34.271Z,20.06
2023-03-29T15:50:02.363Z,20.05
2023-03-29T15:52:29.808Z,19.98
2023-03-29T15:54:56.887Z,19.93
2023-03-29T15:57:24.221Z,19.92
2023-03-29T15:59:51.477Z,19.95
2023-03-29T16:02:24.315Z,19.95
2023-03-29T16:04:53.655Z,19.94
2023-03-29T16:07:21.386Z,19.94
2023-03-29T16:09:48.691Z,19.91
2023-03-29T16:12:16.432Z,19.95
2023-03-29T16:14:43.553Z,19.92
2023-03-29T16:17:10.941Z,19.91
2023-03-29T16:19:37.942Z,19.84
2023-03-29T16:22:07.325Z,19.79
2023-03-29T16:24:35.609Z,19.76
2023-03-29T16:27:03.997Z,19.71
2023-03-29T16:29:31.948Z,19.68
2023-03-29T16:31:59.204Z,19.60
2023-03-29T16:34:26.843Z,19.57
2023-03-29T16:36:54.235Z,19.52
2023-03-29T16:39:21.566Z,19.47
2023-03-29T16:41:50.274Z,19.45
2023-03-29T16:44:24.417Z,19.43
2023-03-29T16:46:54.239Z,19.40
2023-03-29T16:49:22.247Z,19.37
2023-03-29T16:51:50.162Z,19.32
2023-03-29T16:54:17.644Z,19.25
2023-03-29T16:56:45.178Z,19.21
2023-03-29T16:59:12.870Z,19.17
2023-03-29T17:01:41.013Z,19.11
2023-03-29T17:04:09.293Z,19.04
2023-03-29T17:06:36.994Z,18.99
2023-03-29T17:09:05.259Z,18.94
2023-03-29T17:11:33.095Z,18.88
2023-03-29T17:14:00.420Z,18.85
2023-03-29T17:16:29.211Z,18.82
2023-03-29T17:19:00.649Z,18.78
2023-03-29T17:21:29.322Z,18.71
2023-03-29T17:23:56.440Z,18.67
2023-03-29T17:26:23.599Z,18.62
2023-03-29T17:28:50.849Z,18.58
2023-03-29T17:31:19.423Z,18.55
2023-03-29T17:33:47.580Z,18.52
2023-03-29T17:36:15.003Z,18.45
2023-03-29T17:38:42.942Z,18.39
2023-03-29T17:41:10.272Z,18.37
2023-03-29T17:43:37.409Z,18.31
2023-03-29T17:46:05.022Z,18.28
2023-03-29T17:48:32.995Z,18.25
2023-03-29T17:51:00.584Z,18.21
2023-03-29T17:53:27.874Z,18.18
2023-03-29T17:55:55.485Z,18.13
2023-03-29T17:58:22.788Z,18.07
2023-03-29T18:00:50.570Z,18.03
2023-03-29T18:03:17.767Z,17.98
2023-03-29T18:05:48.791Z,17.93
2023-03-29T18:08:16.912Z,17.89
2023-03-29T18:10:44.361Z,17.86
2023-03-29T18:13:13.995Z,17.81
2023-03-29T18:15:42.160Z,17.76
2023-03-29T18:18:09.161Z,17.71
2023-03-29T18:20:36.190Z,17.68
2023-03-29T18:23:03.501Z,17.62
2023-03-29T18:25:30.449Z,17.56
2023-03-29T18:27:57.563Z,17.52
2023-03-29T18:30:24.582Z,17.50
2023-03-29T18:32:51.689Z,17.46
2023-03-29T18:35:18.677Z,17.43
2023-03-29T18:37:45.703Z,17.40
2023-03-29T18:40:13.109Z,17.33
2023-03-29T18:42:40.071Z,17.28
2023-03-29T18:45:09.387Z,17.24
2023-03-29T18:47:36.348Z,17.19
2023-03-29T18:50:04.177Z,17.16
2023-03-29T18:52:31.276Z,17.10
2023-03-29T18:54:58.422Z,17.06
2023-03-29T18:57:25.449Z,17.01
2023-03-29T18:59:52.640Z,16.96
2023-03-29T19:02:19.759Z,16.90
2023-03-29T19:04:46.835Z,16.85
2023-03-29T19:07:13.939Z,16.81
2023-03-29T19:09:41.774Z,16.76
2023-03-29T19:12:09.049Z,16.71
2023-03-29T19:14:36.076Z,16.68
2023-03-29T19:17:03.192Z,16.63
2023-03-29T19:19:30.151Z,16.60
2023-03-29T19:22:00.383Z,16.57
2023-03-29T19:24:28.140Z,16.55
2023-03-29T19:26:57.504Z,16.53
2023-03-29T19:29:26.067Z,16.51
2023-03-29T19:31:54.600Z,16.50
2023-03-29T19:34:24.046Z,16.48
2023-03-29T19:36:53.956Z,16.45
2023-03-29T19:39:21.988Z,16.44
2023-03-29T19:41:49.129Z,16.41
2023-03-29T19:44:16.180Z,16.40
2023-03-29T19:46:43.439Z,16.35
2023-03-29T19:49:13.563Z,16.35
2023-03-29T19:51:42.145Z,16.31
2023-03-29T19:54:12.155Z,16.29
2023-03-29T19:56:40.818Z,16.27
2023-03-29T19:59:11.055Z,16.22
2023-03-29T20:01:39.221Z,16.20
2023-03-29T20:04:06.580Z,16.18
2023-03-29T20:06:38.562Z,16.15
2023-03-29T20:09:07.031Z,16.12
2023-03-29T20:11:34.083Z,16.12
2023-03-29T20:14:01.276Z,16.09
2023-03-29T20:16:29.919Z,16.08
2023-03-29T20:18:57.134Z,16.05
2023-03-29T20:21:24.168Z,16.02
2023-03-29T20:23:51.318Z,16.01
2023-03-29T20:26:18.298Z,16.01
2023-03-29T20:28:45.825Z,16.00
2023-03-29T20:31:13.297Z,16.02
2023-03-29T20:33:41.569Z,16.01
2023-03-29T20:36:09.187Z,16.01
2023-03-29T20:38:36.533Z,16.01
2023-03-29T20:41:05.876Z,16.02
2023-03-29T20:43:40.955Z,16.03
2023-03-29T20:46:14.690Z,16.02
2023-03-29T20:48:54.298Z,15.99
2023-03-29T20:51:28.141Z,15.98
2023-03-29T20:54:02.283Z,15.98
2023-03-29T20:56:31.439Z,15.98
2023-03-29T20:58:59.084Z,15.96
2023-03-29T21:01:29.615Z,15.94
2023-03-29T21:03:57.119Z,15.89
2023-03-29T21:06:24.731Z,15.86
2023-03-29T21:08:52.633Z,15.83
2023-03-29T21:11:21.019Z,15.82
2023-03-29T21:13:48.298Z,15.80
2023-03-29T21:16:15.781Z,15.78
2023-03-29T21:18:43.606Z,15.76
2023-03-29T21:21:12.650Z,15.73
2023-03-29T21:23:39.983Z,15.71
2023-03-29T21:26:07.964Z,15.64
2023-03-29T21:28:35.855Z,15.58
2023-03-29T21:31:07.505Z,15.55
2023-03-29T21:33:36.614Z,15.51
2023-03-29T21:36:04.390Z,15.49
2023-03-29T21:38:31.803Z,15.47
2023-03-29T21:41:00.667Z,15.45
2023-03-29T21:43:28.220Z,15.42
2023-03-29T21:45:57.670Z,15.39
2023-03-29T21:48:24.921Z,15.39
2023-03-29T21:50:52.117Z,15.34
2023-03-29T21:53:19.348Z,15.31
2023-03-29T21:55:49.757Z,15.29
2023-03-29T21:58:17.755Z,15.27
2023-03-29T22:00:46.727Z,15.23
2023-03-29T22:03:15.044Z,15.23
2023-03-29T22:05:42.417Z,15.20
2023-03-29T22:08:12.283Z,15.17
2023-03-29T22:10:41.469Z,15.14
2023-03-29T22:13:09.258Z,15.09
2023-03-29T22:15:36.427Z,15.04
2023-03-29T22:18:04.235Z,14.99
2023-03-29T22:20:35.586Z,14.94
2023-03-29T22:23:03.301Z,14.88
2023-03-29T22:25:30.544Z,14.85
2023-03-29T22:27:57.775Z,14.85
2023-03-29T22:30:24.755Z,14.83
2023-03-29T22:32:51.862Z,14.81
2023-03-29T22:35:18.888Z,14.75
2023-03-29T22:37:46.018Z,14.70
2023-03-29T22:40:13.917Z,14.69
2023-03-29T22:42:41.191Z,14.67
2023-03-29T22:45:09.587Z,14.63
2023-03-29T22:47:36.656Z,14.60
2023-03-29T22:50:04.920Z,14.59
2023-03-29T22:52:32.162Z,14.56
2023-03-29T22:54:59.205Z,14.54
2023-03-29T22:57:27.163Z,14.51
2023-03-29T22:59:54.728Z,14.48
2023-03-29T23:02:21.894Z,14.46
2023-03-29T23:04:48.964Z,14.45
2023-03-29T23:07:16.214Z,14.43
2023-03-29T23:09:43.234Z,14.43
2023-03-29T23:12:10.232Z,14.43
2023-03-29T23:14:37.720Z,14.43
2023-03-29T23:17:04.843Z,14.41
2023-03-29T23:19:31.931Z,14.38
2023-03-29T23:21:59.024Z,14.35
2023-03-29T23:24:26.008Z,14.34
2023-03-29T23:26:53.249Z,14.32
2023-03-29T23:29:20.184Z,14.29
2023-03-29T23:31:47.657Z,14.27
2023-03-29T23:34:14.951Z,14.26
2023-03-29T23:36:42.058Z,14.25
2023-03-29T23:39:09.953Z,14.23
2023-03-29T23:41:40.113Z,14.20
2023-03-29T23:44:07.914Z,14.18
2023-03-29T23:46:35.153Z,14.17
2023-03-29T23:49:02.275Z,14.17
2023-03-29T23:51:29.379Z,14.15
2023-03-29T23:53:57.023Z,14.15
2023-03-29T23:56:24.322Z,14.13
2023-03-29T23:58:51.781Z,14.11
